Time;durP1;ratioP1;P1;durP2;ratioP2;P2;SDS_P1;SDS_P2;PMS_P1;PMS_P2;Temp;Humidity;BMP_temperature;BMP_pressure;BME280_temperature;BME280_humidity;BME280_pressure;Samples;Min_cycle;Max_cycle;Signal;HPM_P1;HPM_P2
2021/05/22 00:02:07;;;;;;;1.63;1.53;;;11.70;99.90;;;;;;5098179;28;20163;-82
2021/05/22 00:04:33;;;;;;;2.57;1.50;;;11.90;99.90;;;;;;5098120;28;20190;-81
2021/05/22 00:06:59;;;;;;;1.63;1.53;;;11.90;99.90;;;;;;5097722;28;20583;-81
2021/05/22 00:09:25;;;;;;;2.13;1.60;;;11.90;99.90;;;;;;5097665;28;20186;-80
2021/05/22 00:11:50;;;;;;;1.50;1.40;;;11.90;99.90;;;;;;5097529;28;20396;-82
2021/05/22 00:14:16;;;;;;;1.57;1.47;;;11.70;99.90;;;;;;5097639;28;20151;-81
2021/05/22 00:16:42;;;;;;;2.57;1.50;;;11.70;99.90;;;;;;5097988;28;20159;-80
2021/05/22 00:19:08;;;;;;;3.13;1.63;;;11.60;99.90;;;;;;5079775;28;20170;-81
2021/05/22 00:21:34;;;;;;;1.40;1.30;;;11.70;99.90;;;;;;5096861;28;20249;-82
2021/05/22 00:24:00;;;;;;;2.00;1.90;;;11.80;99.90;;;;;;5098103;28;20416;-82
2021/05/22 00:26:26;;;;;;;6.87;2.03;;;11.70;99.90;;;;;;5098225;28;20187;-82
2021/05/22 00:28:52;;;;;;;3.30;2.67;;;11.70;99.90;;;;;;5096600;28;20408;-81
2021/05/22 00:31:18;;;;;;;3.57;2.00;;;11.70;99.90;;;;;;5104495;28;20542;-79
2021/05/22 00:33:44;;;;;;;1.63;1.53;;;11.60;99.90;;;;;;5108152;28;20180;-79
2021/05/22 00:36:09;;;;;;;2.07;1.60;;;11.50;99.90;;;;;;5108301;28;20255;-79
2021/05/22 00:38:35;;;;;;;1.93;1.60;;;11.60;99.90;;;;;;5109308;28;20159;-80
2021/05/22 00:41:01;;;;;;;2.77;2.50;;;11.80;99.90;;;;;;5102957;28;20253;-81
2021/05/22 00:43:27;;;;;;;3.10;1.97;;;11.80;99.90;;;;;;5097689;28;20247;-81
2021/05/22 00:45:54;;;;;;;2.40;2.17;;;11.60;99.90;;;;;;5095962;28;20623;-81
2021/05/22 00:48:23;;;;;;;1.80;1.70;;;11.50;99.90;;;;;;5095693;28;20504;-81
2021/05/22 00:50:52;;;;;;;1.83;1.47;;;11.60;99.90;;;;;;5096647;28;20396;-81
2021/05/22 00:53:18;;;;;;;2.37;1.93;;;11.60;99.90;;;;;;5097951;28;20389;-81
2021/05/22 00:55:45;;;;;;;2.13;1.93;;;11.50;99.90;;;;;;5100664;28;20396;-81
2021/05/22 00:58:11;;;;;;;1.90;1.77;;;11.60;99.90;;;;;;5101045;28;20432;-81
2021/05/22 01:00:47;;;;;;;2.60;2.13;;;11.60;99.90;;;;;;5101069;28;20442;-81
2021/05/22 01:03:22;;;;;;;2.00;1.80;;;11.60;99.90;;;;;;5099304;28;20449;-81
2021/05/22 01:05:48;;;;;;;2.50;2.30;;;11.50;99.90;;;;;;5100495;28;20924;-81
2021/05/22 01:08:18;;;;;;;2.13;1.93;;;11.60;99.90;;;;;;5101209;28;20429;-81
2021/05/22 01:10:45;;;;;;;5.00;1.73;;;11.70;99.90;;;;;;5101051;28;20235;-80
2021/05/22 01:13:13;;;;;;;2.43;2.23;;;11.60;99.90;;;;;;5099124;28;20886;-82
2021/05/22 01:15:42;;;;;;;2.33;2.13;;;11.70;99.90;;;;;;5100963;28;20522;-81
2021/05/22 01:18:09;;;;;;;2.17;2.00;;;11.60;99.90;;;;;;5100512;28;20734;-81
2021/05/22 01:20:39;;;;;;;6.43;1.80;;;11.70;99.90;;;;;;5099395;28;20410;-81
2021/05/22 01:23:13;;;;;;;2.30;2.10;;;11.70;99.90;;;;;;5100405;28;20424;-82
2021/05/22 01:25:41;;;;;;;2.53;2.23;;;11.60;99.90;;;;;;5099192;28;20435;-81
2021/05/22 01:28:09;;;;;;;3.43;2.23;;;11.60;99.90;;;;;;5100530;28;20488;-81
2021/05/22 01:30:36;;;;;;;3.13;2.07;;;11.60;99.90;;;;;;5100650;28;20732;-81
2021/05/22 01:33:07;;;;;;;2.30;2.10;;;11.80;99.90;;;;;;5099155;28;20388;-82
2021/05/22 01:35:33;;;;;;;2.40;2.20;;;11.80;99.90;;;;;;5100858;28;20729;-82
2021/05/22 01:37:59;;;;;;;2.20;2.00;;;11.70;99.90;;;;;;5101299;28;20368;-82
2021/05/22 01:40:25;;;;;;;2.10;2.00;;;11.70;99.90;;;;;;5101296;28;20798;-81
2021/05/22 01:42:51;;;;;;;2.10;1.90;;;11.70;99.90;;;;;;5100769;28;20478;-81
2021/05/22 01:45:25;;;;;;;2.40;2.20;;;11.80;99.90;;;;;;5100096;28;20764;-81
2021/05/22 01:47:53;;;;;;;4.13;1.83;;;11.70;99.90;;;;;;5099963;28;20877;-81
2021/05/22 01:50:21;;;;;;;1.80;1.70;;;11.70;99.90;;;;;;5100400;28;20412;-81
2021/05/22 01:52:51;;;;;;;2.20;2.00;;;11.80;99.90;;;;;;5100181;28;20403;-81
2021/05/22 01:55:18;;;;;;;2.77;1.83;;;11.60;99.90;;;;;;5100776;28;20405;-80
2021/05/22 01:57:44;;;;;;;1.70;1.60;;;11.80;99.90;;;;;;5109371;28;20413;-80
2021/05/22 02:00:12;;;;;;;1.60;1.50;;;11.90;99.90;;;;;;5105136;28;20488;-81
2021/05/22 02:02:54;;;;;;;2.03;1.83;;;11.90;99.90;;;;;;5099828;28;20433;-81
2021/05/22 02:05:20;;;;;;;3.43;1.90;;;12.00;99.90;;;;;;5097787;28;20444;-82
2021/05/22 02:07:48;;;;;;;1.80;1.70;;;11.70;99.90;;;;;;5099784;28;20523;-82
2021/05/22 02:10:15;;;;;;;1.30;1.20;;;11.80;99.90;;;;;;5099800;28;20957;-81
2021/05/22 02:12:42;;;;;;;1.63;1.20;;;12.00;99.90;;;;;;5100113;28;20744;-81
2021/05/22 02:15:12;;;;;;;4.00;1.67;;;11.90;99.90;;;;;;5098523;28;20493;-82
2021/05/22 02:17:39;;;;;;;1.87;1.30;;;11.60;99.90;;;;;;5099695;28;20388;-81
2021/05/22 02:20:08;;;;;;;1.30;1.20;;;11.80;99.90;;;;;;5103539;28;20401;-81
2021/05/22 02:22:37;;;;;;;1.90;1.63;;;12.10;99.90;;;;;;5104074;28;20397;-80
2021/05/22 02:25:03;;;;;;;1.40;1.30;;;12.10;99.90;;;;;;5102900;28;20785;-81
2021/05/22 02:27:28;;;;;;;1.20;1.10;;;11.90;99.90;;;;;;5100153;28;20380;-81
2021/05/22 02:29:55;;;;;;;1.00;1.00;;;11.70;99.90;;;;;;5099345;28;20729;-81
2021/05/22 02:32:22;;;;;;;1.30;1.20;;;11.50;99.90;;;;;;5099302;28;20393;-81
2021/05/22 02:34:54;;;;;;;1.27;1.17;;;11.20;99.90;;;;;;5098930;28;20392;-81
2021/05/22 02:37:26;;;;;;;1.83;1.40;;;10.90;99.90;;;;;;5098206;28;20393;-81
2021/05/22 02:39:55;;;;;;;1.27;1.17;;;10.80;99.90;;;;;;5081088;28;20401;-81
2021/05/22 02:42:23;;;;;;;9.07;1.30;;;10.80;99.90;;;;;;5098307;28;20460;-81
2021/05/22 02:44:51;;;;;;;1.30;1.10;;;10.70;99.90;;;;;;5098581;28;20642;-81
2021/05/22 02:47:21;;;;;;;1.00;0.90;;;10.60;99.90;;;;;;5080466;28;20397;-81
2021/05/22 02:49:48;;;;;;;1.20;1.10;;;10.40;99.90;;;;;;5098063;28;20480;-81
2021/05/22 02:52:18;;;;;;;1.97;1.13;;;10.40;99.90;;;;;;5098222;28;20397;-81
2021/05/22 02:54:46;;;;;;;1.30;1.20;;;10.40;99.90;;;;;;5098327;28;20419;-81
2021/05/22 02:57:14;;;;;;;1.23;1.13;;;10.40;99.90;;;;;;5098230;28;20397;-81
2021/05/22 02:59:40;;;;;;;1.10;1.00;;;10.40;99.90;;;;;;5097594;28;20402;-81
2021/05/22 03:02:09;;;;;;;1.37;1.13;;;10.30;99.90;;;;;;5098286;28;20385;-81
2021/05/22 03:04:35;;;;;;;1.00;0.90;;;10.40;99.90;;;;;;5096951;28;20416;-82
2021/05/22 03:07:02;;;;;;;1.43;1.33;;;10.30;99.90;;;;;;5098421;28;20393;-81
2021/05/22 03:09:28;;;;;;;1.73;1.63;;;10.40;99.90;;;;;;5098235;28;20861;-81
2021/05/22 03:11:55;;;;;;;1.00;0.90;;;10.50;99.90;;;;;;5098935;28;20392;-81
2021/05/22 03:14:21;;;;;;;1.20;1.10;;;10.60;99.90;;;;;;5098678;28;20715;-82
2021/05/22 03:16:47;;;;;;;1.30;1.10;;;10.70;99.90;;;;;;5097283;28;20389;-81
2021/05/22 03:19:13;;;;;;;6.43;1.33;;;10.60;99.90;;;;;;5098289;28;20774;-81
2021/05/22 03:21:39;;;;;;;1.30;1.10;;;10.60;99.90;;;;;;5097634;28;20174;-81
2021/05/22 03:24:08;;;;;;;1.27;1.17;;;10.70;99.90;;;;;;5098323;28;20472;-81
2021/05/22 03:26:34;;;;;;;1.50;1.20;;;10.60;99.90;;;;;;5097394;28;20542;-81
2021/05/22 03:29:00;;;;;;;1.73;1.10;;;10.40;99.90;;;;;;5104016;28;20397;-79
2021/05/22 03:31:26;;;;;;;1.13;1.03;;;10.00;99.90;;;;;;5105885;28;20240;-80
2021/05/22 03:33:51;;;;;;;3.23;1.23;;;9.70;99.90;;;;;;5106377;28;20166;-80
2021/05/22 03:36:17;;;;;;;3.83;3.53;;;9.80;99.90;;;;;;5105627;28;20426;-80
2021/05/22 03:38:43;;;;;;;2.00;1.23;;;10.10;99.90;;;;;;5105871;28;20169;-80
2021/05/22 03:41:09;;;;;;;1.77;1.27;;;9.30;99.90;;;;;;5104969;28;20163;-80
2021/05/22 03:43:35;;;;;;;1.20;1.00;;;9.50;99.90;;;;;;5105069;28;20177;-80
2021/05/22 03:46:00;;;;;;;1.60;1.30;;;9.40;99.90;;;;;;5103783;28;20193;-81
2021/05/22 03:48:27;;;;;;;1.53;1.43;;;9.30;99.90;;;;;;5096252;28;20186;-81
2021/05/22 03:50:54;;;;;;;1.20;1.10;;;9.10;99.90;;;;;;5098370;28;20167;-80
2021/05/22 03:53:20;;;;;;;3.50;1.00;;;9.00;99.90;;;;;;5097253;28;20401;-81
2021/05/22 03:55:46;;;;;;;2.90;1.07;;;9.10;99.90;;;;;;5097769;28;20446;-80
2021/05/22 03:58:12;;;;;;;1.60;1.40;;;9.30;99.90;;;;;;5096724;28;20158;-82
2021/05/22 04:00:38;;;;;;;3.40;1.00;;;9.30;99.90;;;;;;5096288;28;20159;-82
2021/05/22 04:03:05;;;;;;;3.10;1.13;;;9.20;99.90;;;;;;5097420;28;20173;-81
2021/05/22 04:05:31;;;;;;;1.60;1.30;;;9.00;99.90;;;;;;5101128;28;20253;-81
2021/05/22 04:07:57;;;;;;;3.00;1.47;;;9.20;99.90;;;;;;5099522;28;20464;-81
2021/05/22 04:10:23;;;;;;;1.20;1.10;;;9.30;99.90;;;;;;5100227;28;20163;-82
2021/05/22 04:12:49;;;;;;;1.93;1.77;;;9.10;99.90;;;;;;5098419;28;20159;-81
2021/05/22 04:15:15;;;;;;;0.93;0.90;;;9.10;99.90;;;;;;5097384;28;20202;-81
2021/05/22 04:17:40;;;;;;;3.90;1.40;;;9.10;99.90;;;;;;5097366;28;20163;-82
2021/05/22 04:20:06;;;;;;;3.03;1.10;;;9.10;99.90;;;;;;5097586;28;20171;-81
2021/05/22 04:22:32;;;;;;;1.10;1.00;;;9.20;99.90;;;;;;5097127;28;20555;-81
2021/05/22 04:24:58;;;;;;;1.20;1.10;;;9.30;99.90;;;;;;5096896;28;20537;-81
2021/05/22 04:27:24;;;;;;;1.30;1.00;;;9.40;99.90;;;;;;5097023;28;20171;-81
2021/05/22 04:29:50;;;;;;;1.13;1.03;;;8.90;99.90;;;;;;5096263;28;20186;-81
2021/05/22 04:32:16;;;;;;;1.43;1.30;;;9.10;99.90;;;;;;5096895;28;20449;-81
2021/05/22 04:34:41;;;;;;;1.73;1.50;;;9.20;99.90;;;;;;5097245;28;20158;-82
2021/05/22 04:37:07;;;;;;;1.67;1.57;;;9.00;99.90;;;;;;5095957;28;20169;-81
2021/05/22 04:39:33;;;;;;;1.00;0.90;;;9.10;99.90;;;;;;5096954;28;20171;-81
2021/05/22 04:41:59;;;;;;;1.00;0.90;;;9.00;99.90;;;;;;5104675;28;20267;-82
2021/05/22 04:44:25;;;;;;;1.50;1.33;;;9.10;99.90;;;;;;5096731;28;20269;-82
2021/05/22 04:46:51;;;;;;;1.57;1.10;;;9.00;99.90;;;;;;5097116;28;20163;-82
2021/05/22 04:49:16;;;;;;;1.43;1.33;;;9.20;99.90;;;;;;5098447;28;20440;-82
2021/05/22 04:51:45;;;;;;;1.30;1.20;;;9.10;99.90;;;;;;5098451;28;20230;-82
2021/05/22 04:54:11;;;;;;;2.93;1.33;;;9.10;99.90;;;;;;5097750;28;20163;-82
2021/05/22 04:56:37;;;;;;;6.07;1.50;;;9.30;99.90;;;;;;5097285;28;20406;-82
2021/05/22 04:59:03;;;;;;;1.93;1.30;;;9.50;99.90;;;;;;5097750;28;20399;-82
2021/05/22 05:01:30;;;;;;;2.17;1.90;;;9.40;99.90;;;;;;5098144;28;20447;-82
2021/05/22 05:03:56;;;;;;;5.90;1.47;;;9.50;99.90;;;;;;5098131;28;20446;-82
2021/05/22 05:06:22;;;;;;;1.67;1.57;;;10.00;99.90;;;;;;5098333;28;20436;-82
2021/05/22 05:08:48;;;;;;;3.07;1.40;;;10.20;99.90;;;;;;5098841;28;20190;-81
2021/05/22 05:11:14;;;;;;;1.43;1.20;;;10.40;99.90;;;;;;5115551;28;20377;-79
2021/05/22 05:13:40;;;;;;;2.50;1.10;;;10.30;99.90;;;;;;5114614;28;20385;-79
2021/05/22 05:16:06;;;;;;;2.33;1.27;;;10.20;99.90;;;;;;5114464;28;20182;-79
2021/05/22 05:18:32;;;;;;;3.60;1.13;;;10.20;99.90;;;;;;5113023;28;20163;-80
2021/05/22 05:20:58;;;;;;;4.03;1.50;;;10.10;99.90;;;;;;5099681;28;20405;-81
2021/05/22 05:23:24;;;;;;;1.33;1.23;;;10.40;99.90;;;;;;5078317;28;20282;-82
2021/05/22 05:25:51;;;;;;;5.33;2.37;;;10.50;99.90;;;;;;5096745;28;20202;-82
2021/05/22 05:28:21;;;;;;;2.13;1.50;;;10.40;99.90;;;;;;5097179;28;20432;-81
2021/05/22 05:30:47;;;;;;;1.73;1.10;;;10.20;99.90;;;;;;5097269;28;20396;-81
2021/05/22 05:33:13;;;;;;;2.43;1.50;;;10.50;99.90;;;;;;5095501;28;20385;-82
2021/05/22 05:35:40;;;;;;;1.30;1.20;;;10.50;99.90;;;;;;5095994;28;20861;-82
2021/05/22 05:38:06;;;;;;;1.50;1.10;;;10.70;99.90;;;;;;5096988;28;20431;-81
2021/05/22 05:40:32;;;;;;;1.43;1.33;;;10.50;99.90;;;;;;5099770;28;20888;-81
2021/05/22 05:42:58;;;;;;;2.07;1.10;;;10.90;99.90;;;;;;5101310;28;20449;-81
2021/05/22 05:45:24;;;;;;;2.30;2.03;;;10.70;99.90;;;;;;5106117;28;20938;-81
2021/05/22 05:47:53;;;;;;;3.10;1.77;;;10.80;99.90;;;;;;5106531;28;20162;-82
2021/05/22 05:50:20;;;;;;;3.67;1.37;;;10.80;99.90;;;;;;5103911;28;20384;-82
2021/05/22 05:52:45;;;;;;;2.33;1.37;;;10.90;99.90;;;;;;5101427;28;20743;-82
2021/05/22 05:55:12;;;;;;;3.03;2.03;;;11.00;99.90;;;;;;5100599;28;20401;-81
2021/05/22 05:57:38;;;;;;;4.10;1.30;;;10.80;99.90;;;;;;5099241;28;20170;-82
2021/05/22 06:00:05;;;;;;;1.50;1.40;;;10.90;99.90;;;;;;5098955;28;20413;-82
2021/05/22 06:02:31;;;;;;;1.20;1.10;;;11.10;99.90;;;;;;5100009;28;20612;-82
2021/05/22 06:04:56;;;;;;;2.47;1.80;;;10.90;99.90;;;;;;5100146;28;20454;-82
2021/05/22 06:07:22;;;;;;;2.50;1.50;;;11.20;99.90;;;;;;5100103;28;20604;-81
2021/05/22 06:09:48;;;;;;;1.40;1.30;;;11.30;99.90;;;;;;5100023;28;20617;-81
2021/05/22 06:12:14;;;;;;;3.27;1.23;;;11.40;99.90;;;;;;5100742;28;20243;-82
2021/05/22 06:14:43;;;;;;;2.90;1.43;;;11.10;99.90;;;;;;5098973;28;20173;-82
2021/05/22 06:17:09;;;;;;;5.33;1.80;;;11.30;99.90;;;;;;5100048;28;20545;-82
2021/05/22 06:19:34;;;;;;;1.30;1.10;;;11.40;99.90;;;;;;5098650;28;20399;-81
2021/05/22 06:22:00;;;;;;;2.50;1.83;;;11.60;99.90;;;;;;5100282;28;20524;-82
2021/05/22 06:24:26;;;;;;;1.20;1.10;;;11.60;99.90;;;;;;5098469;28;20155;-82
2021/05/22 06:26:54;;;;;;;4.43;1.43;;;12.00;99.90;;;;;;5099810;28;20170;-82
2021/05/22 06:29:20;;;;;;;3.37;1.57;;;11.70;99.90;;;;;;5099680;28;20159;-82
2021/05/22 06:31:46;;;;;;;2.43;1.50;;;12.10;99.90;;;;;;5099574;28;20417;-82
2021/05/22 06:34:12;;;;;;;5.90;1.77;;;11.90;99.90;;;;;;5099273;28;20424;-82
2021/05/22 06:36:40;;;;;;;1.93;1.30;;;11.90;99.90;;;;;;5100176;28;20163;-82
2021/05/22 06:39:06;;;;;;;4.80;1.80;;;12.00;99.90;;;;;;5099351;28;20167;-81
2021/05/22 06:41:32;;;;;;;2.30;2.10;;;12.20;99.90;;;;;;5098781;28;20407;-81
2021/05/22 06:43:58;;;;;;;1.40;1.30;;;12.40;99.90;;;;;;5098007;28;20588;-81
2021/05/22 06:49:10;;;;;;;1.70;1.27;;;12.50;99.90;;;;;;5098382;28;20425;-81
2021/05/22 06:51:35;;;;;;;2.10;1.33;;;12.60;99.90;;;;;;5099086;28;20427;-81
2021/05/22 06:54:01;;;;;;;1.60;1.50;;;12.50;99.90;;;;;;5099452;28;20166;-81
2021/05/22 06:56:27;;;;;;;1.87;1.70;;;12.20;99.90;;;;;;5099059;28;20254;-81
2021/05/22 06:58:52;;;;;;;4.03;1.60;;;12.40;99.90;;;;;;5097899;28;20170;-81
2021/05/22 07:01:18;;;;;;;2.30;1.30;;;12.30;99.90;;;;;;5099178;28;20173;-82
2021/05/22 07:03:44;;;;;;;1.97;1.50;;;12.60;99.90;;;;;;5098896;28;20223;-81
2021/05/22 07:06:12;;;;;;;4.50;1.50;;;12.70;99.90;;;;;;5098387;28;20225;-82
2021/05/22 07:08:39;;;;;;;4.80;1.77;;;12.70;99.90;;;;;;5098903;28;20197;-81
2021/05/22 07:11:05;;;;;;;4.53;1.37;;;13.10;99.90;;;;;;5098966;28;20535;-82
2021/05/22 07:13:31;;;;;;;2.70;1.53;;;13.00;99.90;;;;;;5097427;28;20400;-82
2021/05/22 07:16:00;;;;;;;2.83;1.50;;;13.10;99.90;;;;;;5098806;28;20158;-82
2021/05/22 07:18:26;;;;;;;2.83;1.43;;;13.30;99.90;;;;;;5098322;28;20222;-82
2021/05/22 07:20:52;;;;;;;3.00;1.90;;;13.20;99.90;;;;;;5081582;28;20488;-82
2021/05/22 07:23:17;;;;;;;1.40;1.30;;;13.10;99.90;;;;;;5098203;28;20166;-82
2021/05/22 07:25:43;;;;;;;2.50;1.63;;;12.70;99.90;;;;;;5098316;28;20536;-80
2021/05/22 07:28:13;;;;;;;2.30;1.30;;;12.80;99.90;;;;;;5098440;28;20237;-81
2021/05/22 07:30:42;;;;;;;7.00;1.60;;;12.80;99.90;;;;;;5098625;28;20162;-81
2021/05/22 07:33:14;;;;;;;3.73;1.60;;;12.70;99.90;;;;;;5099353;28;20400;-81
2021/05/22 07:35:41;;;;;;;1.73;1.43;;;12.50;99.90;;;;;;5097746;28;20393;-80
2021/05/22 07:38:07;;;;;;;3.90;1.77;;;12.40;99.90;;;;;;5081498;28;20397;-81
2021/05/22 07:40:33;;;;;;;3.50;1.57;;;12.40;99.90;;;;;;5099554;28;20401;-81
2021/05/22 07:42:59;;;;;;;8.17;1.93;;;12.30;99.90;;;;;;5097231;28;20530;-81
2021/05/22 07:45:28;;;;;;;5.60;1.47;;;12.60;99.90;;;;;;5099131;28;20214;-80
2021/05/22 07:47:54;;;;;;;3.30;1.40;;;12.70;99.90;;;;;;5099332;28;20630;-81
2021/05/22 07:50:22;;;;;;;6.13;1.60;;;12.90;99.90;;;;;;5097596;28;20428;-81
2021/05/22 07:52:48;;;;;;;2.70;1.30;;;12.90;99.90;;;;;;5098157;28;20183;-80
2021/05/22 07:55:14;;;;;;;2.70;1.40;;;12.90;99.90;;;;;;5098955;28;20419;-80
2021/05/22 07:57:40;;;;;;;3.07;1.73;;;12.70;99.90;;;;;;5100659;28;20167;-80
2021/05/22 08:00:11;;;;;;;2.63;1.30;;;13.00;99.90;;;;;;5105516;28;20209;-80
2021/05/22 08:02:37;;;;;;;1.13;1.03;;;13.20;99.90;;;;;;5083866;28;20388;-79
2021/05/22 08:05:10;;;;;;;1.40;1.30;;;13.40;99.90;;;;;;5118381;28;20459;-80
2021/05/22 08:07:36;;;;;;;2.00;1.48;;;13.50;99.90;;;;;;5103010;28;20422;-80
2021/05/22 08:10:06;;;;;;;5.03;1.40;;;13.60;99.90;;;;;;5084397;28;20626;-79
2021/05/22 08:12:32;;;;;;;1.27;1.10;;;13.40;99.90;;;;;;5082835;28;20384;-79
2021/05/22 08:14:58;;;;;;;3.10;1.20;;;13.20;99.90;;;;;;5101574;28;20498;-82
2021/05/22 08:17:24;;;;;;;4.77;1.50;;;13.20;99.90;;;;;;5103497;28;20388;-83
2021/05/22 08:19:50;;;;;;;2.43;1.80;;;12.90;99.90;;;;;;5118615;28;20499;-83
2021/05/22 08:22:16;;;;;;;1.47;1.20;;;13.20;99.90;;;;;;5084540;28;20162;-82
2021/05/22 08:24:42;;;;;;;1.70;1.30;;;13.40;99.90;;;;;;5110378;28;20763;-79
2021/05/22 08:27:08;;;;;;;2.00;1.60;;;13.60;99.90;;;;;;5131982;28;20158;-82
2021/05/22 08:29:34;;;;;;;5.33;1.60;;;13.30;99.90;;;;;;5131098;28;20170;-78
2021/05/22 08:32:00;;;;;;;1.73;1.47;;;13.60;99.90;;;;;;5120259;28;20403;-80
2021/05/22 08:34:27;;;;;;;2.13;1.33;;;13.60;99.90;;;;;;5100208;28;20163;-80
2021/05/22 08:36:54;;;;;;;1.10;1.00;;;13.80;99.90;;;;;;5100339;28;20397;-80
2021/05/22 08:39:20;;;;;;;4.90;1.40;;;13.50;99.90;;;;;;5108018;28;20413;-79
2021/05/22 08:41:49;;;;;;;2.00;1.67;;;13.70;99.90;;;;;;5101862;28;20401;-81
2021/05/22 08:44:15;;;;;;;2.50;1.70;;;13.60;99.90;;;;;;5098041;28;20492;-82
2021/05/22 08:46:41;;;;;;;4.93;1.30;;;13.70;99.90;;;;;;5098619;28;20467;-81
2021/05/22 08:49:08;;;;;;;2.80;1.30;;;13.60;99.90;;;;;;5097721;28;20171;-82
2021/05/22 08:51:33;;;;;;;2.33;1.53;;;14.00;99.90;;;;;;5098198;28;20159;-82
2021/05/22 08:53:59;;;;;;;6.27;1.40;;;14.00;99.90;;;;;;5097777;28;20401;-82
2021/05/22 08:56:25;;;;;;;7.73;1.83;;;13.80;99.90;;;;;;5098358;28;20155;-82
2021/05/22 08:58:52;;;;;;;2.80;1.50;;;14.10;99.90;;;;;;5098253;28;20165;-81
2021/05/22 09:01:18;;;;;;;6.47;1.77;;;14.20;99.90;;;;;;5097743;28;20419;-82
2021/05/22 09:03:48;;;;;;;1.60;1.50;;;14.30;99.90;;;;;;5098632;28;20397;-82
2021/05/22 09:06:15;;;;;;;1.77;1.50;;;14.30;99.90;;;;;;5098090;28;20540;-82
2021/05/22 09:08:40;;;;;;;6.20;1.77;;;14.10;99.90;;;;;;5096888;28;20420;-82
2021/05/22 09:11:07;;;;;;;3.00;2.70;;;14.00;99.90;;;;;;5097706;28;20447;-80
2021/05/22 09:13:34;;;;;;;7.20;1.93;;;13.90;99.90;;;;;;5098651;28;20245;-82
2021/05/22 09:16:04;;;;;;;3.30;1.33;;;13.80;99.90;;;;;;5100195;28;20465;-81
2021/05/22 09:18:35;;;;;;;5.07;1.67;;;14.00;99.90;;;;;;5083916;28;20419;-82
2021/05/22 09:21:03;;;;;;;1.53;1.30;;;14.00;99.90;;;;;;5099129;28;20431;-79
2021/05/22 09:23:32;;;;;;;2.60;1.67;;;14.30;99.90;;;;;;5099173;28;20401;-82
2021/05/22 09:26:02;;;;;;;6.53;1.43;;;14.30;99.90;;;;;;5101119;28;20490;-82
2021/05/22 09:28:31;;;;;;;2.10;1.60;;;14.40;99.90;;;;;;5084010;28;20407;-82
2021/05/22 09:30:59;;;;;;;2.93;1.10;;;14.50;99.90;;;;;;5100300;28;20520;-82
2021/05/22 09:33:27;;;;;;;2.77;1.53;;;14.60;99.90;;;;;;5100466;28;20419;-82
2021/05/22 09:35:57;;;;;;;4.13;1.37;;;14.60;99.90;;;;;;5102007;28;20404;-82
2021/05/22 09:38:36;;;;;;;3.33;1.57;;;14.70;99.90;;;;;;5100456;28;20389;-82
2021/05/22 09:41:14;;;;;;;2.13;1.10;;;14.50;99.90;;;;;;5100515;28;20400;-82
2021/05/22 09:43:40;;;;;;;2.50;1.70;;;14.60;99.90;;;;;;5083050;28;20811;-82
2021/05/22 09:46:09;;;;;;;1.57;1.47;;;14.70;99.90;;;;;;5083667;28;21020;-82
2021/05/22 09:48:36;;;;;;;1.63;1.40;;;14.90;99.90;;;;;;5102987;28;20488;-81
2021/05/22 09:51:04;;;;;;;2.13;1.40;;;14.70;99.90;;;;;;5103082;28;20450;-81
2021/05/22 09:53:34;;;;;;;2.23;1.40;;;15.00;99.90;;;;;;5111613;28;20442;-80
2021/05/22 09:56:09;;;;;;;1.67;1.40;;;14.50;99.90;;;;;;5113936;28;20389;-81
2021/05/22 09:58:36;;;;;;;15.73;2.10;;;15.00;99.90;;;;;;5112194;28;20885;-82
2021/05/22 10:01:03;;;;;;;2.20;1.67;;;15.30;99.90;;;;;;5102453;28;20912;-82
2021/05/22 10:03:29;;;;;;;2.03;1.20;;;15.10;99.90;;;;;;5104226;28;20487;-81
2021/05/22 10:05:55;;;;;;;1.80;1.50;;;15.20;99.90;;;;;;5106098;28;20440;-81
2021/05/22 10:08:21;;;;;;;3.03;1.70;;;15.00;99.90;;;;;;5104458;28;20191;-82
2021/05/22 10:10:51;;;;;;;4.00;1.63;;;14.60;99.90;;;;;;5104585;28;20245;-81
2021/05/22 10:13:19;;;;;;;3.60;1.40;;;15.10;99.90;;;;;;5107977;28;20162;-80
2021/05/22 10:15:48;;;;;;;7.30;1.80;;;15.10;99.90;;;;;;5108249;28;20466;-81
2021/05/22 10:18:15;;;;;;;1.77;1.50;;;15.10;99.90;;;;;;5103947;28;20817;-82
2021/05/22 10:20:41;;;;;;;3.60;1.30;;;15.20;99.90;;;;;;5103607;28;20397;-80
2021/05/22 10:23:07;;;;;;;4.10;1.60;;;15.70;99.90;;;;;;5100369;28;20461;-80
2021/05/22 10:25:34;;;;;;;2.50;1.60;;;15.50;99.90;;;;;;5082468;28;20643;-80
2021/05/22 10:28:00;;;;;;;1.67;1.30;;;15.60;99.90;;;;;;5101733;28;20404;-81
2021/05/22 10:30:26;;;;;;;5.27;1.50;;;15.70;99.90;;;;;;5100294;28;20417;-83
2021/05/22 10:33:03;;;;;;;2.70;1.80;;;15.80;99.90;;;;;;5101958;28;20393;-81
2021/05/22 10:35:48;;;;;;;1.30;1.20;;;15.70;99.90;;;;;;5101218;28;20453;-81
2021/05/22 10:38:38;;;;;;;2.33;1.83;;;15.60;99.90;;;;;;5102390;28;20420;-81
2021/05/22 10:41:08;;;;;;;1.50;1.40;;;15.70;99.90;;;;;;5100668;28;20393;-80
2021/05/22 10:43:55;;;;;;;1.60;1.27;;;15.70;99.90;;;;;;5100315;28;20572;-80
2021/05/22 10:46:24;;;;;;;1.60;1.50;;;15.50;99.90;;;;;;5098747;28;20459;-80
2021/05/22 10:48:59;;;;;;;1.73;1.63;;;15.40;99.90;;;;;;5099468;28;20389;-81
2021/05/22 10:51:35;;;;;;;1.73;1.30;;;16.20;99.90;;;;;;5099263;28;20620;-80
2021/05/22 10:54:04;;;;;;;1.47;1.37;;;16.50;99.90;;;;;;5098283;28;20392;-82
2021/05/22 10:56:30;;;;;;;4.30;1.40;;;16.70;99.90;;;;;;5103581;28;20407;-82
2021/05/22 10:59:14;;;;;;;1.73;1.23;;;17.10;99.90;;;;;;5108054;28;20396;-83
2021/05/22 11:01:43;;;;;;;1.37;1.27;;;16.70;99.90;;;;;;5110368;28;20422;-80
2021/05/22 11:04:26;;;;;;;1.90;1.60;;;16.80;99.90;;;;;;5110934;28;20509;-82
2021/05/22 11:07:17;;;;;;;1.73;1.50;;;16.80;99.90;;;;;;5110934;28;20623;-80
2021/05/22 11:09:45;;;;;;;6.80;1.60;;;16.50;99.90;;;;;;5128804;28;20396;-82
2021/05/22 11:12:45;;;;;;;1.97;1.30;;;16.80;99.90;;;;;;5110819;28;20412;-82
2021/05/22 11:15:51;;;;;;;2.37;1.50;;;16.80;99.90;;;;;;5116220;28;20404;-81
2021/05/22 11:18:20;;;;;;;1.20;1.10;;;16.30;99.90;;;;;;5111060;28;20530;-81
2021/05/22 11:21:21;;;;;;;2.70;1.40;;;16.00;99.90;;;;;;5110107;28;20439;-82
2021/05/22 11:24:01;;;;;;;3.70;1.40;;;16.10;99.90;;;;;;5108702;28;20478;-81
2021/05/22 11:26:53;;;;;;;3.53;1.40;;;16.10;99.90;;;;;;5123757;28;20455;-82
2021/05/22 11:29:23;;;;;;;3.20;1.90;;;15.70;99.90;;;;;;5116038;28;20765;-80
2021/05/22 11:31:49;;;;;;;5.43;2.50;;;15.80;99.90;;;;;;5102162;28;20448;-83
2021/05/22 11:34:28;;;;;;;3.03;1.70;;;15.80;99.90;;;;;;5083668;28;20397;-80
2021/05/22 11:37:30;;;;;;;1.50;1.40;;;15.90;99.90;;;;;;5105314;28;20603;-82
2021/05/22 11:39:56;;;;;;;4.40;1.73;;;16.00;99.90;;;;;;5107859;28;20411;-83
2021/05/22 11:42:35;;;;;;;1.30;1.17;;;16.10;99.90;;;;;;5110201;28;20508;-82
2021/05/22 11:45:05;;;;;;;3.40;1.77;;;15.90;99.90;;;;;;5077781;28;20305;-80
2021/05/22 11:47:36;;;;;;;1.50;1.40;;;16.50;99.90;;;;;;5066258;28;20426;-84
2021/05/22 11:50:24;;;;;;;1.87;1.30;;;16.50;99.90;;;;;;5060120;28;20410;-83
2021/05/22 11:52:51;;;;;;;2.20;1.27;;;16.50;99.90;;;;;;5055462;28;20761;-79
2021/05/22 11:55:21;;;;;;;2.67;1.83;;;15.90;99.90;;;;;;5064931;28;20443;-82
2021/05/22 11:58:04;;;;;;;5.90;1.37;;;16.30;99.90;;;;;;5050655;28;20398;-82
2021/05/22 12:00:30;;;;;;;2.70;1.40;;;16.20;99.90;;;;;;5046621;28;20878;-80
2021/05/22 12:02:55;;;;;;;1.40;1.30;;;16.20;99.90;;;;;;5068575;28;20450;-82
2021/05/22 12:05:24;;;;;;;2.63;1.40;;;16.60;99.70;;;;;;5069512;28;20211;-82
2021/05/22 12:07:51;;;;;;;3.83;1.40;;;16.70;98.30;;;;;;5050721;28;20210;-80
2021/05/22 12:10:18;;;;;;;4.07;1.40;;;16.70;97.40;;;;;;5048676;28;20410;-81
2021/05/22 12:12:45;;;;;;;5.43;1.27;;;16.50;98.70;;;;;;5063521;28;20411;-82
2021/05/22 12:15:23;;;;;;;2.13;1.63;;;16.20;97.40;;;;;;5025423;28;20490;-80
2021/05/22 12:17:51;;;;;;;2.20;1.40;;;16.50;98.80;;;;;;5055155;28;20411;-80
2021/05/22 12:20:18;;;;;;;2.40;1.87;;;17.30;96.80;;;;;;5054498;28;20399;-83
2021/05/22 12:22:44;;;;;;;1.47;1.37;;;17.90;95.30;;;;;;5056869;28;20410;-82
2021/05/22 12:25:10;;;;;;;4.97;1.83;;;17.80;95.30;;;;;;5057411;28;20476;-82
2021/05/22 12:27:37;;;;;;;1.30;1.20;;;17.70;95.10;;;;;;5048998;28;20176;-81
2021/05/22 12:30:04;;;;;;;2.37;2.00;;;17.90;94.40;;;;;;5058245;28;20399;-82
2021/05/22 12:32:30;;;;;;;3.17;1.90;;;18.20;94.00;;;;;;5059397;28;20391;-82
2021/05/22 12:35:04;;;;;;;2.13;1.17;;;18.50;93.30;;;;;;5030907;28;20402;-82
2021/05/22 12:37:30;;;;;;;2.97;1.57;;;18.10;93.10;;;;;;5062602;28;20196;-81
2021/05/22 12:40:00;;;;;;;3.80;1.67;;;17.80;94.40;;;;;;5047889;28;20410;-81
2021/05/22 12:42:29;;;;;;;3.90;2.13;;;17.80;94.00;;;;;;5066643;28;20454;-83
2021/05/22 12:44:57;;;;;;;2.50;1.30;;;18.00;93.60;;;;;;5062324;28;20482;-81
2021/05/22 12:47:39;;;;;;;3.50;1.50;;;17.80;91.60;;;;;;5060370;28;20755;-83
2021/05/22 12:50:08;;;;;;;5.07;1.53;;;17.70;93.20;;;;;;5066649;28;20390;-82
2021/05/22 12:52:53;;;;;;;2.40;1.60;;;17.70;94.60;;;;;;5063289;28;20834;-83
2021/05/22 12:55:28;;;;;;;2.63;1.37;;;17.30;93.90;;;;;;5061969;28;20519;-80
2021/05/22 12:57:56;;;;;;;2.13;1.63;;;17.40;93.70;;;;;;5063972;28;20401;-82